Higbee, Missouri
Current Conditions -  °F | °C
As of 7:35 AM on Wednesday 22 Oct 2014 (Local Time) from KVER Reporting Station
Moderate Fog Moderate Fog  
Wind Chill: 42°   Ceiling: Unl
Heat Index: 45°   Visibility: 0mi
Dew Point: 41°   Wind: 5mph
Humidity: 87%   Direction: 110°ESE
Pressure: 30.26"   Gusts: NA
Location:  39.3°N, 92.51°W
Report Text: KVER 221235Z AUTO 11004KT M1/4SM FG VV000 07/05 A3026 RMK AO2 T00700050
Loading
Personal Weather Stations






























Interactive Weather Map
Tropical Storm Tracking
New forecast layout! Learn more

10-Day Weather Forecast

Advertisements
Track Severe Weather on mobile